Helensvale, Queensland

1:18 AM AEST on August 30, 2015 (GMT +1000)
RIVERLINKS | | Change Station
CLOSE
Current Station
Personal Weather Station
Location: Helensvale (Gold Coast), QLD
Elevation: 7 ft
Nearby Weather Stations

Elev 7 ft 27.88 °S, 153.32 °E | Updated 2 seconds ago

Light Rain Showers
Light Showers Rain
59.7 °F
Feels Like 59.7 °F
N
3.8
Wind Variable Wind from NW
Gusts 4.9 mph

Today
High -- | Low -- °F
--% Chance of Precip.
Yesterday
High -- | Low -- °F
Precip. -- in
6:03 AM 5:31 PM
Full, 100% visible
Pressure 30.04 in
Visibility 6.2 miles
Clouds Scattered Clouds 1900 ft
Scattered Clouds 6000 ft
Scattered Clouds 7300 ft
Dew Point 59 °F
Humidity 98%
Rainfall 0.00 in
Snow Depth Not available.
UV 0.0 out of 12
Pollen Not available.
Air Quality Not available.
Flu Activity Not available.
SPECI YAMB 291517Z AUTO 04005KT 9999 -SHRA SCT019 SCT060 SCT073 14/13 Q1017
Pressure 30.04 in
Visibility 6.2 miles
Clouds Scattered Clouds 1900 ft
Scattered Clouds 6000 ft
Scattered Clouds 7300 ft
Dew Point 59 °F
Humidity 98%
Rainfall 0.00 in
Snow Depth Not available.
UV 0.0 out of 12
Pollen Not available.
Air Quality Not available.
Flu Activity Not available.
SPECI YAMB 291517Z AUTO 04005KT 9999 -SHRA SCT019 SCT060 SCT073 14/13 Q1017

10-Day Weather Forecast

×

Almanac

Astronomy

Aug. 30, 2015 Rise Set
Actual Time
Civil Twilight
Nautical Twilight
Astronomical Twilight
Moon
Length of Visible Light
Length of Day
Tomorrow will be .
, % of the Moon is Illuminated

Today's Extremes

Country Highs Country Lows

Community

WunderPhotos

Upload Photos

1,850,694 photos uploaded!

WunderBlogs® & News

Nearby

Air Quality

  Air Quality AQ Index Pollutant
Not available.

Snow Depth

Station Depth Elevation

Earthquake Activity

City Distance Mag. Time & Date
Minimum magnitude displayed is 2.5.

Coastal Water Temperatures

Place Temperature

Stations

Nearby Weather Stations

Station Location Temp. Windchill Dew Point Humidity Wind Precip. Elev Updated Type